Hamiter, Arkansas
Current Conditions -  °F | °C
As of 10:53 AM on Saturday 22 Nov 2014 (Local Time) from KLIT Reporting Station
Broken Clouds Broken Clouds  
Wind Chill: 61°   Ceiling: 10000
Heat Index: 61°   Visibility: 10mi
Dew Point: 50°   Wind: 7mph
Humidity: 67%   Direction: 180°S
Pressure: 30.18"   Gusts: NA
Location:  34.7054°N, 92.1029°W
Report Text: KLIT 221653Z 18006KT 10SM SCT036 BKN100 16/10 A3018 RMK AO2 SLP222 T01610100
Loading
Personal Weather Stations






























Interactive Weather Map New forecast layout! Learn more

10-Day Weather Forecast

Advertisements
Track Severe Weather on mobile